createdAt,value
2023-04-22T00:01:10.367Z,8.49
2023-04-22T00:03:42.488Z,8.49
2023-04-22T00:06:12.445Z,8.50
2023-04-22T00:08:41.737Z,8.51
2023-04-22T00:11:11.453Z,8.51
2023-04-22T00:13:40.648Z,8.52
2023-04-22T00:16:10.120Z,8.54
2023-04-22T00:18:39.866Z,8.55
2023-04-22T00:21:09.270Z,8.54
2023-04-22T00:23:38.585Z,8.51
2023-04-22T00:26:07.889Z,8.50
2023-04-22T00:28:39.012Z,8.47
2023-04-22T00:31:08.508Z,8.42
2023-04-22T00:33:38.446Z,8.38
2023-04-22T00:36:08.140Z,8.32
2023-04-22T00:38:37.503Z,8.30
2023-04-22T00:41:08.683Z,8.28
2023-04-22T00:43:38.089Z,8.26
2023-04-22T00:46:07.803Z,8.21
2023-04-22T00:48:38.537Z,8.14
2023-04-22T00:51:08.345Z,8.05
2023-04-22T00:53:37.753Z,7.98
2023-04-22T00:56:08.078Z,7.89
2023-04-22T00:58:37.372Z,7.81
2023-04-22T01:01:07.181Z,7.76
2023-04-22T01:03:40.656Z,7.71
2023-04-22T01:06:10.295Z,7.66
2023-04-22T01:08:41.072Z,7.59
2023-04-22T01:11:10.331Z,7.55
2023-04-22T01:13:41.489Z,7.52
2023-04-22T01:16:11.146Z,7.51
2023-04-22T01:18:40.491Z,7.50
2023-04-22T01:21:09.993Z,7.52
2023-04-22T01:23:39.995Z,7.54
2023-04-22T01:26:09.268Z,7.58
2023-04-22T01:28:39.126Z,7.62
2023-04-22T01:31:09.770Z,7.65
2023-04-22T01:33:39.164Z,7.69
2023-04-22T01:36:10.347Z,7.73
2023-04-22T01:38:41.652Z,7.75
2023-04-22T01:41:11.076Z,7.77
2023-04-22T01:43:40.769Z,7.76
2023-04-22T01:46:10.828Z,7.75
2023-04-22T01:48:40.802Z,7.74
2023-04-22T01:51:10.103Z,7.72
2023-04-22T01:53:39.404Z,7.69
2023-04-22T01:56:08.808Z,7.65
2023-04-22T01:58:40.777Z,7.60
2023-04-22T02:01:12.261Z,7.55
2023-04-22T02:03:44.241Z,7.48
2023-04-22T02:06:15.024Z,7.39
2023-04-22T02:08:47.187Z,7.32
2023-04-22T02:11:17.621Z,7.23
2023-04-22T02:13:47.338Z,7.15
2023-04-22T02:16:16.697Z,7.08
2023-04-22T02:18:46.234Z,7.03
2023-04-22T02:21:15.950Z,6.99
2023-04-22T02:23:45.450Z,6.97
2023-04-22T02:26:14.954Z,6.96
2023-04-22T02:28:44.359Z,6.97
2023-04-22T02:31:13.921Z,6.98
2023-04-22T02:33:43.173Z,7.00
2023-04-22T02:36:12.567Z,7.03
2023-04-22T02:38:41.973Z,7.08
2023-04-22T02:41:11.594Z,7.15
2023-04-22T02:43:46.125Z,7.23
2023-04-22T02:46:16.706Z,7.27
2023-04-22T02:48:46.442Z,7.31
2023-04-22T02:51:16.261Z,7.34
2023-04-22T02:53:45.661Z,7.38
2023-04-22T02:56:15.062Z,7.41
2023-04-22T02:58:44.568Z,7.40
2023-04-22T03:01:13.893Z,7.40
2023-04-22T03:03:44.045Z,7.37
2023-04-22T03:06:15.744Z,7.32
2023-04-22T03:08:45.045Z,7.28
2023-04-22T03:11:14.654Z,7.25
2023-04-22T03:13:44.570Z,7.22
2023-04-22T03:16:14.177Z,7.18
2023-04-22T03:18:44.808Z,7.17
2023-04-22T03:21:15.138Z,7.15
2023-04-22T03:23:44.543Z,7.14
2023-04-22T03:26:14.251Z,7.15
2023-04-22T03:28:43.960Z,7.16
2023-04-22T03:31:13.260Z,7.19
2023-04-22T03:33:42.867Z,7.22
2023-04-22T03:36:19.031Z,7.26
2023-04-22T03:38:48.435Z,7.31
2023-04-22T03:41:18.043Z,7.36
2023-04-22T03:43:49.597Z,7.40
2023-04-22T03:46:19.877Z,7.44
2023-04-22T03:48:56.637Z,7.46
2023-04-22T03:51:29.502Z,7.49
2023-04-22T03:53:59.805Z,7.49
2023-04-22T03:56:30.128Z,7.50
2023-04-22T03:59:01.374Z,7.51
2023-04-22T04:01:30.980Z,7.51
2023-04-22T04:04:02.980Z,7.53
2023-04-22T04:06:39.617Z,7.56
2023-04-22T04:09:09.228Z,7.58
2023-04-22T04:11:38.546Z,7.62
2023-04-22T04:14:08.346Z,7.68
2023-04-22T04:16:48.402Z,7.73
2023-04-22T04:19:27.321Z,7.80
2023-04-22T04:21:57.252Z,7.90
2023-04-22T04:24:28.587Z,8.03
2023-04-22T04:27:04.435Z,8.20
2023-04-22T04:29:41.578Z,8.41
2023-04-22T04:32:15.939Z,8.66
2023-04-22T04:34:45.343Z,8.87
2023-04-22T04:37:17.834Z,9.14
2023-04-22T04:39:59.637Z,9.54
2023-04-22T04:42:34.557Z,9.96
2023-04-22T04:45:09.420Z,10.41
2023-04-22T04:47:39.235Z,11.04
2023-04-22T04:50:22.925Z,11.80
2023-04-22T04:52:52.990Z,12.58
2023-04-22T04:55:26.436Z,13.32
2023-04-22T04:57:56.364Z,13.98
2023-04-22T05:00:25.762Z,14.52
2023-04-22T05:02:55.461Z,15.04
2023-04-22T05:05:25.001Z,15.52
2023-04-22T05:07:54.482Z,16.01
2023-04-22T05:10:25.343Z,16.54
2023-04-22T05:12:55.545Z,16.94
2023-04-22T05:15:26.786Z,17.31
2023-04-22T05:17:56.001Z,17.85
2023-04-22T05:20:25.789Z,18.34
2023-04-22T05:22:55.634Z,18.73
2023-04-22T05:25:25.223Z,19.04
2023-04-22T05:27:59.344Z,19.40
2023-04-22T05:30:30.990Z,19.77
2023-04-22T05:33:00.644Z,20.05
2023-04-22T05:35:30.825Z,20.40
2023-04-22T05:38:01.251Z,20.75
2023-04-22T05:40:30.447Z,20.87
2023-04-22T05:43:00.780Z,20.70
2023-04-22T05:45:30.172Z,20.70
2023-04-22T05:47:59.952Z,20.92
2023-04-22T05:50:31.545Z,21.13
2023-04-22T05:53:06.678Z,21.31
2023-04-22T05:55:36.801Z,21.47
2023-04-22T05:58:06.922Z,21.88
2023-04-22T06:00:53.441Z,22.32
2023-04-22T06:03:37.360Z,22.81
2023-04-22T06:06:08.940Z,23.30
2023-04-22T06:08:38.322Z,23.50
2023-04-22T06:11:08.132Z,23.52
2023-04-22T06:13:38.080Z,23.59
2023-04-22T06:18:38.644Z,23.95
2023-04-22T06:21:10.880Z,24.23
2023-04-22T06:23:40.588Z,24.23
2023-04-22T06:26:09.979Z,24.41
2023-04-22T06:28:40.102Z,24.84
2023-04-22T06:31:13.733Z,25.14
2023-04-22T06:33:43.719Z,25.31
2023-04-22T06:36:14.247Z,25.40
2023-04-22T06:38:43.957Z,25.32
2023-04-22T06:41:33.438Z,25.35
2023-04-22T06:44:07.342Z,25.50
2023-04-22T06:47:35.647Z,25.45
2023-04-22T06:50:15.882Z,25.48
2023-04-22T06:52:58.089Z,25.35
2023-04-22T06:55:27.591Z,25.37
2023-04-22T06:57:57.003Z,25.40
2023-04-22T07:00:26.347Z,25.54
2023-04-22T07:02:56.439Z,25.37
2023-04-22T07:05:26.114Z,25.27
2023-04-22T07:07:55.944Z,25.20
2023-04-22T07:10:26.438Z,25.29
2023-04-22T07:13:27.223Z,25.08
2023-04-22T07:15:57.026Z,24.83
2023-04-22T07:18:26.460Z,24.90
2023-04-22T07:20:56.029Z,24.90
2023-04-22T07:23:25.530Z,24.90
2023-04-22T07:25:55.245Z,24.70
2023-04-22T07:28:24.750Z,24.26
2023-04-22T07:30:55.996Z,23.89
2023-04-22T07:33:25.506Z,23.61
2023-04-22T07:35:55.171Z,23.42
2023-04-22T07:38:25.227Z,23.57
2023-04-22T07:40:54.529Z,23.59
2023-04-22T07:43:24.099Z,23.68
2023-04-22T07:45:53.589Z,23.68
2023-04-22T07:48:23.501Z,23.69
2023-04-22T07:50:52.759Z,23.89
2023-04-22T07:53:22.265Z,23.93
2023-04-22T07:55:52.003Z,23.68
2023-04-22T07:58:21.680Z,23.79
2023-04-22T08:00:51.646Z,23.88
2023-04-22T08:03:21.433Z,23.96
2023-04-22T08:05:51.542Z,23.88
2023-04-22T08:08:21.046Z,23.83
2023-04-22T08:10:50.339Z,23.96
2023-04-22T08:13:19.620Z,24.09
2023-04-22T08:15:49.269Z,24.21
2023-04-22T08:18:18.446Z,24.33
2023-04-22T08:20:48.360Z,24.55
2023-04-22T08:23:17.573Z,24.66
2023-04-22T08:25:46.868Z,24.45
2023-04-22T08:28:16.052Z,24.31
2023-04-22T08:30:45.464Z,24.39
2023-04-22T08:33:16.402Z,24.79
2023-04-22T08:35:45.708Z,25.06
2023-04-22T08:38:15.004Z,25.14
2023-04-22T08:40:44.517Z,25.12
2023-04-22T08:43:14.246Z,25.18
2023-04-22T08:45:45.327Z,25.35
2023-04-22T08:48:15.485Z,25.62
2023-04-22T08:50:47.894Z,25.94
2023-04-22T08:53:17.364Z,26.15
2023-04-22T08:55:47.278Z,26.18
2023-04-22T08:58:16.680Z,25.98
2023-04-22T09:00:46.285Z,25.89
2023-04-22T09:03:16.820Z,25.75
2023-04-22T09:05:50.014Z,25.62
2023-04-22T09:08:20.573Z,25.60
2023-04-22T09:10:50.784Z,25.58
2023-04-22T09:13:21.698Z,25.61
2023-04-22T09:15:50.932Z,25.50
2023-04-22T09:18:20.610Z,25.48
2023-04-22T09:20:56.746Z,25.59
2023-04-22T09:23:26.784Z,25.64
2023-04-22T09:25:57.628Z,25.59
2023-04-22T09:28:27.317Z,25.70
2023-04-22T09:31:01.025Z,25.73
2023-04-22T09:33:32.350Z,25.68
2023-04-22T09:36:09.286Z,25.63
2023-04-22T09:38:38.593Z,25.44
2023-04-22T09:41:12.531Z,25.38
2023-04-22T09:43:41.880Z,25.36
2023-04-22T09:46:11.658Z,25.19
2023-04-22T09:48:46.258Z,24.90
2023-04-22T09:51:17.478Z,24.79
2023-04-22T09:54:00.281Z,24.75
2023-04-22T09:57:02.758Z,24.76
2023-04-22T09:59:32.236Z,24.83
2023-04-22T10:02:06.909Z,24.71
2023-04-22T10:04:36.929Z,24.58
2023-04-22T10:07:06.419Z,24.37
2023-04-22T10:09:35.923Z,24.31
2023-04-22T10:12:05.375Z,24.13
2023-04-22T10:14:36.161Z,24.03
2023-04-22T10:17:06.774Z,24.15
2023-04-22T10:19:36.834Z,24.25
2023-04-22T10:22:08.188Z,24.31
2023-04-22T10:24:38.308Z,24.42
2023-04-22T10:27:10.919Z,24.56
2023-04-22T10:29:43.746Z,24.43
2023-04-22T10:32:18.961Z,24.32
2023-04-22T10:34:50.353Z,24.26
2023-04-22T10:37:21.823Z,24.22
2023-04-22T10:40:18.619Z,24.21
2023-04-22T10:42:53.514Z,24.28
2023-04-22T10:45:26.663Z,24.22
2023-04-22T10:47:56.281Z,24.17
2023-04-22T10:50:27.922Z,24.31
2023-04-22T10:53:18.712Z,24.40
2023-04-22T10:55:53.092Z,24.24
2023-04-22T10:58:24.656Z,24.23
2023-04-22T11:01:03.362Z,24.50
2023-04-22T11:03:33.125Z,24.80
2023-04-22T11:06:22.522Z,25.13
2023-04-22T11:09:09.197Z,25.26
2023-04-22T11:11:39.122Z,25.26
2023-04-22T11:14:11.550Z,25.17
2023-04-22T11:16:47.784Z,25.13
2023-04-22T11:19:17.880Z,25.12
2023-04-22T11:21:47.844Z,25.20
2023-04-22T11:24:19.442Z,25.23
2023-04-22T11:26:49.668Z,25.06
2023-04-22T11:29:18.868Z,24.46
2023-04-22T11:31:49.509Z,23.86
2023-04-22T11:34:20.041Z,23.11
2023-04-22T11:36:49.329Z,22.71
2023-04-22T11:39:18.834Z,22.60
2023-04-22T11:41:48.394Z,22.43
2023-04-22T11:44:23.892Z,22.29
2023-04-22T11:46:57.285Z,22.04
2023-04-22T11:49:28.114Z,21.76
2023-04-22T11:51:57.956Z,21.49
2023-04-22T11:54:35.926Z,21.22
2023-04-22T11:57:12.009Z,21.18
2023-04-22T11:59:42.642Z,21.30
2023-04-22T12:02:12.034Z,21.27
2023-04-22T12:04:43.627Z,21.10
2023-04-22T12:07:12.899Z,21.03
2023-04-22T12:09:42.590Z,21.11
2023-04-22T12:12:11.943Z,21.31
2023-04-22T12:14:46.108Z,21.64
2023-04-22T12:17:16.570Z,21.79
2023-04-22T12:19:49.250Z,21.91
2023-04-22T12:22:31.009Z,21.99
2023-04-22T12:25:01.776Z,22.11
2023-04-22T12:27:31.762Z,22.29
2023-04-22T12:30:01.678Z,22.55
2023-04-22T12:32:30.876Z,22.78
2023-04-22T12:35:00.386Z,22.98
2023-04-22T12:37:29.585Z,22.92
2023-04-22T12:39:58.883Z,22.62
2023-04-22T12:42:29.251Z,22.26
2023-04-22T12:44:58.405Z,21.80
2023-04-22T12:47:27.638Z,21.52
2023-04-22T12:49:58.762Z,21.25
2023-04-22T12:52:28.356Z,20.94
